sensor_id;sensor_type;location;lat;lon;timestamp;P1;durP1;ratioP1;P2;durP2;ratioP2
47784;SDS011;35233;55.686;37.848;2023-12-20T00:01:22;1.80;;;1.40;;
47784;SDS011;35233;55.686;37.848;2023-12-20T00:03:48;2.05;;;1.55;;
47784;SDS011;35233;55.686;37.848;2023-12-20T00:06:13;1.80;;;1.27;;
47784;SDS011;35233;55.686;37.848;2023-12-20T00:08:39;1.45;;;1.35;;
47784;SDS011;35233;55.686;37.848;2023-12-20T00:11:04;1.48;;;1.17;;
47784;SDS011;35233;55.686;37.848;2023-12-20T00:13:30;1.20;;;1.10;;
47784;SDS011;35233;55.686;37.848;2023-12-20T00:15:56;1.75;;;1.20;;
47784;SDS011;35233;55.686;37.848;2023-12-20T00:18:21;1.27;;;1.15;;
47784;SDS011;35233;55.686;37.848;2023-12-20T00:20:47;2.22;;;1.42;;
47784;SDS011;35233;55.686;37.848;2023-12-20T00:23:13;1.70;;;1.25;;
47784;SDS011;35233;55.686;37.848;2023-12-20T00:25:38;1.95;;;1.42;;
47784;SDS011;35233;55.686;37.848;2023-12-20T00:28:04;1.30;;;1.20;;
47784;SDS011;35233;55.686;37.848;2023-12-20T00:30:29;1.60;;;1.20;;
47784;SDS011;35233;55.686;37.848;2023-12-20T00:32:55;1.08;;;0.98;;
47784;SDS011;35233;55.686;37.848;2023-12-20T00:35:21;0.90;;;0.80;;
47784;SDS011;35233;55.686;37.848;2023-12-20T00:37:47;1.05;;;0.80;;
47784;SDS011;35233;55.686;37.848;2023-12-20T00:40:12;2.10;;;1.20;;
47784;SDS011;35233;55.686;37.848;2023-12-20T00:42:38;1.42;;;1.30;;
47784;SDS011;35233;55.686;37.848;2023-12-20T00:45:04;1.27;;;1.00;;
47784;SDS011;35233;55.686;37.848;2023-12-20T00:47:33;1.98;;;1.40;;
47784;SDS011;35233;55.686;37.848;2023-12-20T00:49:59;1.13;;;1.02;;
47784;SDS011;35233;55.686;37.848;2023-12-20T00:52:24;1.60;;;1.10;;
47784;SDS011;35233;55.686;37.848;2023-12-20T00:54:50;1.10;;;0.90;;
47784;SDS011;35233;55.686;37.848;2023-12-20T00:57:16;1.23;;;1.10;;
47784;SDS011;35233;55.686;37.848;2023-12-20T00:59:41;1.67;;;1.10;;
47784;SDS011;35233;55.686;37.848;2023-12-20T01:02:07;1.15;;;1.08;;
47784;SDS011;35233;55.686;37.848;2023-12-20T01:04:33;1.77;;;1.00;;
47784;SDS011;35233;55.686;37.848;2023-12-20T01:06:59;1.45;;;1.00;;
47784;SDS011;35233;55.686;37.848;2023-12-20T01:09:25;1.25;;;1.08;;
47784;SDS011;35233;55.686;37.848;2023-12-20T01:11:52;2.00;;;1.00;;
47784;SDS011;35233;55.686;37.848;2023-12-20T01:14:18;1.20;;;1.10;;
47784;SDS011;35233;55.686;37.848;2023-12-20T01:16:44;1.38;;;1.00;;
47784;SDS011;35233;55.686;37.848;2023-12-20T01:19:10;0.95;;;0.80;;
47784;SDS011;35233;55.686;37.848;2023-12-20T01:21:36;2.70;;;1.38;;
47784;SDS011;35233;55.686;37.848;2023-12-20T01:24:01;0.85;;;0.85;;
47784;SDS011;35233;55.686;37.848;2023-12-20T01:26:27;0.70;;;0.70;;
47784;SDS011;35233;55.686;37.848;2023-12-20T01:28:53;1.10;;;0.95;;
47784;SDS011;35233;55.686;37.848;2023-12-20T01:31:18;1.35;;;1.00;;
47784;SDS011;35233;55.686;37.848;2023-12-20T01:33:44;2.13;;;1.00;;
47784;SDS011;35233;55.686;37.848;2023-12-20T01:36:09;1.08;;;0.80;;
47784;SDS011;35233;55.686;37.848;2023-12-20T01:38:36;1.98;;;1.00;;
47784;SDS011;35233;55.686;37.848;2023-12-20T01:41:02;1.63;;;1.00;;
47784;SDS011;35233;55.686;37.848;2023-12-20T01:43:27;1.88;;;0.95;;
47784;SDS011;35233;55.686;37.848;2023-12-20T01:45:54;1.52;;;1.25;;
47784;SDS011;35233;55.686;37.848;2023-12-20T01:48:22;1.90;;;1.00;;
47784;SDS011;35233;55.686;37.848;2023-12-20T01:50:49;1.08;;;0.80;;
47784;SDS011;35233;55.686;37.848;2023-12-20T01:53:15;1.73;;;0.90;;
47784;SDS011;35233;55.686;37.848;2023-12-20T01:55:41;1.70;;;1.05;;
47784;SDS011;35233;55.686;37.848;2023-12-20T01:58:09;1.30;;;1.08;;
47784;SDS011;35233;55.686;37.848;2023-12-20T02:00:36;1.27;;;0.90;;
47784;SDS011;35233;55.686;37.848;2023-12-20T02:03:02;1.00;;;0.90;;
47784;SDS011;35233;55.686;37.848;2023-12-20T02:05:29;1.13;;;1.00;;
47784;SDS011;35233;55.686;37.848;2023-12-20T02:07:56;1.05;;;0.85;;
47784;SDS011;35233;55.686;37.848;2023-12-20T02:10:22;1.20;;;1.00;;
47784;SDS011;35233;55.686;37.848;2023-12-20T02:12:48;0.77;;;0.73;;
47784;SDS011;35233;55.686;37.848;2023-12-20T02:15:13;2.03;;;1.05;;
47784;SDS011;35233;55.686;37.848;2023-12-20T02:17:39;1.85;;;1.17;;
47784;SDS011;35233;55.686;37.848;2023-12-20T02:20:05;1.25;;;0.90;;
47784;SDS011;35233;55.686;37.848;2023-12-20T02:22:31;1.48;;;0.95;;
47784;SDS011;35233;55.686;37.848;2023-12-20T02:24:57;1.45;;;1.00;;
47784;SDS011;35233;55.686;37.848;2023-12-20T02:27:23;1.25;;;1.15;;
47784;SDS011;35233;55.686;37.848;2023-12-20T02:29:50;1.00;;;0.88;;
47784;SDS011;35233;55.686;37.848;2023-12-20T02:32:16;1.00;;;0.98;;
47784;SDS011;35233;55.686;37.848;2023-12-20T02:34:42;1.10;;;0.80;;
47784;SDS011;35233;55.686;37.848;2023-12-20T02:37:08;1.45;;;1.20;;
47784;SDS011;35233;55.686;37.848;2023-12-20T02:39:34;1.33;;;1.15;;
47784;SDS011;35233;55.686;37.848;2023-12-20T02:41:59;1.45;;;1.02;;
47784;SDS011;35233;55.686;37.848;2023-12-20T02:44:25;2.25;;;0.93;;
47784;SDS011;35233;55.686;37.848;2023-12-20T02:46:50;1.83;;;1.15;;
47784;SDS011;35233;55.686;37.848;2023-12-20T02:49:16;1.10;;;0.90;;
47784;SDS011;35233;55.686;37.848;2023-12-20T02:51:42;2.05;;;1.05;;
47784;SDS011;35233;55.686;37.848;2023-12-20T02:54:07;1.10;;;1.00;;
47784;SDS011;35233;55.686;37.848;2023-12-20T02:56:33;1.55;;;0.90;;
47784;SDS011;35233;55.686;37.848;2023-12-20T02:58:58;1.52;;;0.90;;
47784;SDS011;35233;55.686;37.848;2023-12-20T03:01:24;2.35;;;1.00;;
47784;SDS011;35233;55.686;37.848;2023-12-20T03:03:50;1.35;;;0.80;;
47784;SDS011;35233;55.686;37.848;2023-12-20T03:06:17;1.02;;;0.90;;
47784;SDS011;35233;55.686;37.848;2023-12-20T03:08:43;1.25;;;1.02;;
47784;SDS011;35233;55.686;37.848;2023-12-20T03:11:09;1.00;;;0.90;;
47784;SDS011;35233;55.686;37.848;2023-12-20T03:13:35;1.50;;;0.90;;
47784;SDS011;35233;55.686;37.848;2023-12-20T03:16:00;0.70;;;0.70;;
47784;SDS011;35233;55.686;37.848;2023-12-20T03:18:26;1.48;;;0.90;;
47784;SDS011;35233;55.686;37.848;2023-12-20T03:20:53;1.77;;;1.00;;
47784;SDS011;35233;55.686;37.848;2023-12-20T03:23:19;1.77;;;1.10;;
47784;SDS011;35233;55.686;37.848;2023-12-20T03:25:44;2.33;;;0.93;;
47784;SDS011;35233;55.686;37.848;2023-12-20T03:28:10;1.55;;;1.08;;
47784;SDS011;35233;55.686;37.848;2023-12-20T03:30:35;0.98;;;0.75;;
47784;SDS011;35233;55.686;37.848;2023-12-20T03:33:01;1.40;;;0.90;;
47784;SDS011;35233;55.686;37.848;2023-12-20T03:35:26;1.63;;;0.98;;
47784;SDS011;35233;55.686;37.848;2023-12-20T03:37:52;1.05;;;0.80;;
47784;SDS011;35233;55.686;37.848;2023-12-20T03:40:18;1.23;;;1.13;;
47784;SDS011;35233;55.686;37.848;2023-12-20T03:42:43;1.05;;;0.90;;
47784;SDS011;35233;55.686;37.848;2023-12-20T03:45:09;1.00;;;0.90;;
47784;SDS011;35233;55.686;37.848;2023-12-20T03:47:35;0.98;;;0.80;;
47784;SDS011;35233;55.686;37.848;2023-12-20T03:50:00;0.85;;;0.82;;
47784;SDS011;35233;55.686;37.848;2023-12-20T03:52:26;1.52;;;1.20;;
47784;SDS011;35233;55.686;37.848;2023-12-20T03:54:51;2.50;;;1.00;;
47784;SDS011;35233;55.686;37.848;2023-12-20T03:57:17;1.98;;;1.05;;
47784;SDS011;35233;55.686;37.848;2023-12-20T03:59:42;1.70;;;0.90;;
47784;SDS011;35233;55.686;37.848;2023-12-20T04:02:08;1.73;;;1.00;;
47784;SDS011;35233;55.686;37.848;2023-12-20T04:04:34;1.02;;;0.90;;
47784;SDS011;35233;55.686;37.848;2023-12-20T04:06:59;2.50;;;1.10;;
47784;SDS011;35233;55.686;37.848;2023-12-20T04:09:25;1.48;;;1.10;;
47784;SDS011;35233;55.686;37.848;2023-12-20T04:11:50;1.48;;;1.02;;
47784;SDS011;35233;55.686;37.848;2023-12-20T04:14:16;1.45;;;0.90;;
47784;SDS011;35233;55.686;37.848;2023-12-20T04:16:42;1.15;;;0.93;;
47784;SDS011;35233;55.686;37.848;2023-12-20T04:19:07;1.15;;;0.80;;
47784;SDS011;35233;55.686;37.848;2023-12-20T04:21:33;1.70;;;1.10;;
47784;SDS011;35233;55.686;37.848;2023-12-20T04:23:59;1.05;;;0.93;;
47784;SDS011;35233;55.686;37.848;2023-12-20T04:26:24;1.65;;;1.23;;
47784;SDS011;35233;55.686;37.848;2023-12-20T04:28:50;2.45;;;1.20;;
47784;SDS011;35233;55.686;37.848;2023-12-20T04:31:15;2.30;;;1.30;;
47784;SDS011;35233;55.686;37.848;2023-12-20T04:33:41;1.40;;;1.00;;
47784;SDS011;35233;55.686;37.848;2023-12-20T04:36:06;1.08;;;0.98;;
47784;SDS011;35233;55.686;37.848;2023-12-20T04:38:34;2.42;;;1.30;;
47784;SDS011;35233;55.686;37.848;2023-12-20T04:40:59;4.00;;;1.30;;
47784;SDS011;35233;55.686;37.848;2023-12-20T04:43:25;2.72;;;1.38;;
47784;SDS011;35233;55.686;37.848;2023-12-20T04:45:50;5.78;;;1.98;;
47784;SDS011;35233;55.686;37.848;2023-12-20T04:48:16;5.90;;;1.85;;
47784;SDS011;35233;55.686;37.848;2023-12-20T04:50:42;4.00;;;1.77;;
47784;SDS011;35233;55.686;37.848;2023-12-20T04:53:07;2.22;;;1.65;;
47784;SDS011;35233;55.686;37.848;2023-12-20T04:55:33;6.00;;;1.90;;
47784;SDS011;35233;55.686;37.848;2023-12-20T04:57:58;5.35;;;1.67;;
47784;SDS011;35233;55.686;37.848;2023-12-20T05:00:24;4.60;;;1.80;;
47784;SDS011;35233;55.686;37.848;2023-12-20T05:02:49;5.18;;;1.80;;
47784;SDS011;35233;55.686;37.848;2023-12-20T05:05:15;7.00;;;2.05;;
47784;SDS011;35233;55.686;37.848;2023-12-20T05:07:43;3.53;;;2.00;;
47784;SDS011;35233;55.686;37.848;2023-12-20T05:10:09;4.10;;;1.83;;
47784;SDS011;35233;55.686;37.848;2023-12-20T05:12:34;5.15;;;1.80;;
47784;SDS011;35233;55.686;37.848;2023-12-20T05:15:00;3.63;;;1.88;;
47784;SDS011;35233;55.686;37.848;2023-12-20T05:17:26;3.45;;;1.70;;
47784;SDS011;35233;55.686;37.848;2023-12-20T05:19:52;2.58;;;1.70;;
47784;SDS011;35233;55.686;37.848;2023-12-20T05:22:18;6.45;;;2.03;;
47784;SDS011;35233;55.686;37.848;2023-12-20T05:24:44;4.20;;;1.90;;
47784;SDS011;35233;55.686;37.848;2023-12-20T05:27:10;3.58;;;2.08;;
47784;SDS011;35233;55.686;37.848;2023-12-20T05:29:36;2.97;;;1.73;;
47784;SDS011;35233;55.686;37.848;2023-12-20T05:32:02;2.50;;;1.85;;
47784;SDS011;35233;55.686;37.848;2023-12-20T05:34:29;2.55;;;1.90;;
47784;SDS011;35233;55.686;37.848;2023-12-20T05:36:55;3.42;;;1.65;;
47784;SDS011;35233;55.686;37.848;2023-12-20T05:39:21;3.40;;;1.80;;
47784;SDS011;35233;55.686;37.848;2023-12-20T05:41:47;3.47;;;1.73;;
47784;SDS011;35233;55.686;37.848;2023-12-20T05:44:13;4.60;;;1.98;;
47784;SDS011;35233;55.686;37.848;2023-12-20T05:46:38;7.43;;;2.28;;
47784;SDS011;35233;55.686;37.848;2023-12-20T05:49:05;4.55;;;2.28;;
47784;SDS011;35233;55.686;37.848;2023-12-20T05:51:31;3.47;;;2.00;;
47784;SDS011;35233;55.686;37.848;2023-12-20T05:53:56;3.95;;;2.13;;
47784;SDS011;35233;55.686;37.848;2023-12-20T05:56:22;4.57;;;2.47;;
47784;SDS011;35233;55.686;37.848;2023-12-20T05:58:47;3.58;;;2.30;;
47784;SDS011;35233;55.686;37.848;2023-12-20T06:01:16;5.05;;;2.67;;
47784;SDS011;35233;55.686;37.848;2023-12-20T06:03:44;5.30;;;2.70;;
47784;SDS011;35233;55.686;37.848;2023-12-20T06:06:13;5.05;;;2.72;;
47784;SDS011;35233;55.686;37.848;2023-12-20T06:08:39;3.95;;;2.25;;
47784;SDS011;35233;55.686;37.848;2023-12-20T06:11:04;4.82;;;2.83;;
47784;SDS011;35233;55.686;37.848;2023-12-20T06:13:33;4.68;;;2.60;;
47784;SDS011;35233;55.686;37.848;2023-12-20T06:15:58;4.40;;;2.40;;
47784;SDS011;35233;55.686;37.848;2023-12-20T06:18:24;5.22;;;2.50;;
47784;SDS011;35233;55.686;37.848;2023-12-20T06:20:50;4.25;;;2.30;;
47784;SDS011;35233;55.686;37.848;2023-12-20T06:23:15;5.30;;;2.70;;
47784;SDS011;35233;55.686;37.848;2023-12-20T06:25:41;5.13;;;2.80;;
47784;SDS011;35233;55.686;37.848;2023-12-20T06:28:07;4.07;;;2.40;;
47784;SDS011;35233;55.686;37.848;2023-12-20T06:30:35;6.03;;;2.90;;
47784;SDS011;35233;55.686;37.848;2023-12-20T06:33:01;5.32;;;2.60;;
47784;SDS011;35233;55.686;37.848;2023-12-20T06:35:26;4.90;;;2.85;;
47784;SDS011;35233;55.686;37.848;2023-12-20T06:37:52;5.13;;;3.00;;
47784;SDS011;35233;55.686;37.848;2023-12-20T06:40:18;4.25;;;2.80;;
47784;SDS011;35233;55.686;37.848;2023-12-20T06:42:43;4.22;;;2.88;;
47784;SDS011;35233;55.686;37.848;2023-12-20T06:45:09;6.15;;;3.15;;
47784;SDS011;35233;55.686;37.848;2023-12-20T06:47:35;4.72;;;2.92;;
47784;SDS011;35233;55.686;37.848;2023-12-20T06:50:01;5.40;;;3.22;;
47784;SDS011;35233;55.686;37.848;2023-12-20T06:52:26;4.07;;;2.97;;
47784;SDS011;35233;55.686;37.848;2023-12-20T06:54:52;4.70;;;3.00;;
47784;SDS011;35233;55.686;37.848;2023-12-20T06:57:18;4.55;;;3.05;;
47784;SDS011;35233;55.686;37.848;2023-12-20T06:59:45;4.47;;;3.08;;
47784;SDS011;35233;55.686;37.848;2023-12-20T07:02:10;4.50;;;3.10;;
47784;SDS011;35233;55.686;37.848;2023-12-20T07:04:40;6.18;;;2.83;;
47784;SDS011;35233;55.686;37.848;2023-12-20T07:07:08;5.78;;;3.20;;
47784;SDS011;35233;55.686;37.848;2023-12-20T07:09:37;5.68;;;3.08;;
47784;SDS011;35233;55.686;37.848;2023-12-20T07:12:03;4.75;;;3.13;;
47784;SDS011;35233;55.686;37.848;2023-12-20T07:14:29;4.88;;;3.33;;
47784;SDS011;35233;55.686;37.848;2023-12-20T07:16:55;5.63;;;3.20;;
47784;SDS011;35233;55.686;37.848;2023-12-20T07:19:21;4.93;;;3.15;;
47784;SDS011;35233;55.686;37.848;2023-12-20T07:21:46;5.07;;;2.92;;
47784;SDS011;35233;55.686;37.848;2023-12-20T07:24:12;4.75;;;3.30;;
47784;SDS011;35233;55.686;37.848;2023-12-20T07:26:37;5.22;;;3.25;;
47784;SDS011;35233;55.686;37.848;2023-12-20T07:29:04;7.45;;;3.17;;
47784;SDS011;35233;55.686;37.848;2023-12-20T07:31:30;5.82;;;3.30;;
47784;SDS011;35233;55.686;37.848;2023-12-20T07:33:56;4.70;;;3.13;;
47784;SDS011;35233;55.686;37.848;2023-12-20T07:36:21;5.57;;;3.13;;
47784;SDS011;35233;55.686;37.848;2023-12-20T07:38:47;4.40;;;3.10;;
47784;SDS011;35233;55.686;37.848;2023-12-20T07:41:13;5.78;;;3.22;;
47784;SDS011;35233;55.686;37.848;2023-12-20T07:43:41;4.78;;;2.80;;
47784;SDS011;35233;55.686;37.848;2023-12-20T07:46:09;5.43;;;3.15;;
47784;SDS011;35233;55.686;37.848;2023-12-20T07:48:35;5.03;;;3.15;;
47784;SDS011;35233;55.686;37.848;2023-12-20T07:51:01;5.32;;;3.13;;
47784;SDS011;35233;55.686;37.848;2023-12-20T07:53:27;4.88;;;3.00;;
47784;SDS011;35233;55.686;37.848;2023-12-20T07:55:53;5.10;;;3.50;;
47784;SDS011;35233;55.686;37.848;2023-12-20T07:58:19;4.82;;;3.05;;
47784;SDS011;35233;55.686;37.848;2023-12-20T08:00:45;4.95;;;3.20;;
47784;SDS011;35233;55.686;37.848;2023-12-20T08:03:10;5.10;;;3.20;;
47784;SDS011;35233;55.686;37.848;2023-12-20T08:05:36;6.30;;;3.30;;
47784;SDS011;35233;55.686;37.848;2023-12-20T08:08:04;5.43;;;2.92;;
47784;SDS011;35233;55.686;37.848;2023-12-20T08:10:30;4.07;;;2.83;;
47784;SDS011;35233;55.686;37.848;2023-12-20T08:12:56;5.15;;;3.20;;
47784;SDS011;35233;55.686;37.848;2023-12-20T08:15:21;4.57;;;3.03;;
47784;SDS011;35233;55.686;37.848;2023-12-20T08:17:47;5.13;;;3.33;;
47784;SDS011;35233;55.686;37.848;2023-12-20T08:20:14;4.93;;;3.30;;
47784;SDS011;35233;55.686;37.848;2023-12-20T08:22:40;5.60;;;3.47;;
47784;SDS011;35233;55.686;37.848;2023-12-20T08:25:05;4.82;;;3.25;;
47784;SDS011;35233;55.686;37.848;2023-12-20T08:27:31;4.15;;;2.80;;
47784;SDS011;35233;55.686;37.848;2023-12-20T08:29:57;5.45;;;3.35;;
47784;SDS011;35233;55.686;37.848;2023-12-20T08:32:25;4.38;;;2.75;;
47784;SDS011;35233;55.686;37.848;2023-12-20T08:34:51;5.05;;;3.15;;
47784;SDS011;35233;55.686;37.848;2023-12-20T08:37:17;5.57;;;3.40;;
47784;SDS011;35233;55.686;37.848;2023-12-20T08:39:43;4.90;;;3.40;;
47784;SDS011;35233;55.686;37.848;2023-12-20T08:42:09;4.75;;;3.00;;
47784;SDS011;35233;55.686;37.848;2023-12-20T08:44:35;4.47;;;3.00;;
47784;SDS011;35233;55.686;37.848;2023-12-20T08:47:00;6.20;;;3.47;;
47784;SDS011;35233;55.686;37.848;2023-12-20T08:49:26;6.38;;;3.10;;
47784;SDS011;35233;55.686;37.848;2023-12-20T08:51:53;5.00;;;3.35;;
47784;SDS011;35233;55.686;37.848;2023-12-20T08:54:18;4.65;;;3.10;;
47784;SDS011;35233;55.686;37.848;2023-12-20T08:56:44;4.75;;;3.40;;
47784;SDS011;35233;55.686;37.848;2023-12-20T08:59:11;4.93;;;3.22;;
47784;SDS011;35233;55.686;37.848;2023-12-20T09:01:37;5.00;;;2.92;;
47784;SDS011;35233;55.686;37.848;2023-12-20T09:04:02;5.47;;;3.03;;
47784;SDS011;35233;55.686;37.848;2023-12-20T09:06:28;6.07;;;3.35;;
47784;SDS011;35233;55.686;37.848;2023-12-20T09:08:54;4.72;;;2.95;;
47784;SDS011;35233;55.686;37.848;2023-12-20T09:11:19;5.28;;;2.95;;
47784;SDS011;35233;55.686;37.848;2023-12-20T09:13:45;4.30;;;3.05;;
47784;SDS011;35233;55.686;37.848;2023-12-20T09:16:11;3.83;;;3.00;;
47784;SDS011;35233;55.686;37.848;2023-12-20T09:18:38;4.65;;;3.10;;
47784;SDS011;35233;55.686;37.848;2023-12-20T09:21:04;4.35;;;3.13;;
47784;SDS011;35233;55.686;37.848;2023-12-20T09:23:29;5.22;;;3.10;;
47784;SDS011;35233;55.686;37.848;2023-12-20T09:26:02;4.70;;;3.33;;
47784;SDS011;35233;55.686;37.848;2023-12-20T09:28:28;4.80;;;3.45;;
47784;SDS011;35233;55.686;37.848;2023-12-20T09:30:53;5.60;;;3.28;;
47784;SDS011;35233;55.686;37.848;2023-12-20T09:33:24;5.15;;;2.80;;
47784;SDS011;35233;55.686;37.848;2023-12-20T09:35:52;4.55;;;3.28;;
47784;SDS011;35233;55.686;37.848;2023-12-20T09:38:18;4.97;;;2.88;;
47784;SDS011;35233;55.686;37.848;2023-12-20T09:40:43;4.57;;;3.00;;
47784;SDS011;35233;55.686;37.848;2023-12-20T09:43:19;5.28;;;2.65;;
47784;SDS011;35233;55.686;37.848;2023-12-20T09:45:46;4.13;;;2.67;;
47784;SDS011;35233;55.686;37.848;2023-12-20T09:48:13;3.85;;;2.90;;
47784;SDS011;35233;55.686;37.848;2023-12-20T09:50:43;4.45;;;2.63;;
47784;SDS011;35233;55.686;37.848;2023-12-20T09:53:09;3.42;;;2.53;;
47784;SDS011;35233;55.686;37.848;2023-12-20T09:55:39;3.95;;;2.78;;
47784;SDS011;35233;55.686;37.848;2023-12-20T09:58:07;3.25;;;2.60;;
47784;SDS011;35233;55.686;37.848;2023-12-20T10:00:34;4.32;;;3.10;;
47784;SDS011;35233;55.686;37.848;2023-12-20T10:03:00;4.60;;;3.03;;
47784;SDS011;35233;55.686;37.848;2023-12-20T10:05:27;4.05;;;2.75;;
47784;SDS011;35233;55.686;37.848;2023-12-20T10:07:57;3.88;;;2.67;;
47784;SDS011;35233;55.686;37.848;2023-12-20T10:10:23;4.00;;;2.70;;
47784;SDS011;35233;55.686;37.848;2023-12-20T10:13:08;4.68;;;3.00;;
47784;SDS011;35233;55.686;37.848;2023-12-20T10:15:35;4.10;;;2.70;;
47784;SDS011;35233;55.686;37.848;2023-12-20T10:18:03;4.57;;;2.97;;
47784;SDS011;35233;55.686;37.848;2023-12-20T10:20:30;4.97;;;3.20;;
47784;SDS011;35233;55.686;37.848;2023-12-20T10:22:56;4.90;;;2.97;;
47784;SDS011;35233;55.686;37.848;2023-12-20T10:25:23;5.22;;;2.97;;
47784;SDS011;35233;55.686;37.848;2023-12-20T10:27:50;5.25;;;3.08;;
47784;SDS011;35233;55.686;37.848;2023-12-20T10:30:33;4.90;;;3.05;;
47784;SDS011;35233;55.686;37.848;2023-12-20T10:32:59;4.80;;;3.20;;
47784;SDS011;35233;55.686;37.848;2023-12-20T10:35:24;4.70;;;3.38;;
47784;SDS011;35233;55.686;37.848;2023-12-20T10:37:51;4.65;;;3.05;;
47784;SDS011;35233;55.686;37.848;2023-12-20T10:40:24;5.13;;;3.30;;
47784;SDS011;35233;55.686;37.848;2023-12-20T10:42:54;4.53;;;3.30;;
47784;SDS011;35233;55.686;37.848;2023-12-20T10:45:22;5.15;;;3.58;;
47784;SDS011;35233;55.686;37.848;2023-12-20T10:47:48;5.75;;;3.45;;
47784;SDS011;35233;55.686;37.848;2023-12-20T10:50:15;6.10;;;3.95;;
47784;SDS011;35233;55.686;37.848;2023-12-20T10:52:41;5.38;;;3.30;;
47784;SDS011;35233;55.686;37.848;2023-12-20T10:55:10;4.40;;;3.45;;
47784;SDS011;35233;55.686;37.848;2023-12-20T10:57:36;5.47;;;3.45;;
47784;SDS011;35233;55.686;37.848;2023-12-20T11:00:02;4.80;;;3.30;;
47784;SDS011;35233;55.686;37.848;2023-12-20T11:02:29;4.35;;;3.35;;
47784;SDS011;35233;55.686;37.848;2023-12-20T11:05:25;5.20;;;3.30;;
47784;SDS011;35233;55.686;37.848;2023-12-20T11:08:24;5.00;;;3.45;;
47784;SDS011;35233;55.686;37.848;2023-12-20T11:11:24;5.53;;;3.75;;
47784;SDS011;35233;55.686;37.848;2023-12-20T11:16:24;5.18;;;3.78;;
47784;SDS011;35233;55.686;37.848;2023-12-20T11:18:50;5.20;;;3.47;;
47784;SDS011;35233;55.686;37.848;2023-12-20T11:21:19;4.40;;;3.20;;
47784;SDS011;35233;55.686;37.848;2023-12-20T11:23:46;4.88;;;3.40;;
47784;SDS011;35233;55.686;37.848;2023-12-20T11:26:12;5.93;;;3.67;;
47784;SDS011;35233;55.686;37.848;2023-12-20T11:28:41;4.30;;;3.40;;
47784;SDS011;35233;55.686;37.848;2023-12-20T11:31:07;4.82;;;3.55;;
47784;SDS011;35233;55.686;37.848;2023-12-20T11:33:36;4.90;;;3.40;;
47784;SDS011;35233;55.686;37.848;2023-12-20T11:36:03;4.93;;;3.10;;
47784;SDS011;35233;55.686;37.848;2023-12-20T11:38:37;5.28;;;3.47;;
47784;SDS011;35233;55.686;37.848;2023-12-20T11:41:06;5.90;;;3.30;;
47784;SDS011;35233;55.686;37.848;2023-12-20T11:43:34;4.90;;;3.40;;
47784;SDS011;35233;55.686;37.848;2023-12-20T11:46:05;4.68;;;3.40;;
47784;SDS011;35233;55.686;37.848;2023-12-20T11:48:32;4.97;;;3.22;;
47784;SDS011;35233;55.686;37.848;2023-12-20T11:50:59;4.13;;;3.05;;
47784;SDS011;35233;55.686;37.848;2023-12-20T11:53:25;4.75;;;3.05;;
47784;SDS011;35233;55.686;37.848;2023-12-20T11:55:51;5.80;;;3.25;;
47784;SDS011;35233;55.686;37.848;2023-12-20T11:58:16;5.32;;;3.25;;
47784;SDS011;35233;55.686;37.848;2023-12-20T12:00:42;3.92;;;2.90;;
47784;SDS011;35233;55.686;37.848;2023-12-20T12:03:08;4.40;;;2.85;;
47784;SDS011;35233;55.686;37.848;2023-12-20T12:05:34;5.82;;;3.13;;
47784;SDS011;35233;55.686;37.848;2023-12-20T12:08:01;3.72;;;2.83;;
47784;SDS011;35233;55.686;37.848;2023-12-20T12:10:28;3.72;;;2.72;;
47784;SDS011;35233;55.686;37.848;2023-12-20T12:12:57;4.07;;;2.75;;
47784;SDS011;35233;55.686;37.848;2023-12-20T12:15:23;3.92;;;2.85;;
47784;SDS011;35233;55.686;37.848;2023-12-20T12:17:55;5.95;;;3.38;;
47784;SDS011;35233;55.686;37.848;2023-12-20T12:20:21;3.88;;;2.78;;
47784;SDS011;35233;55.686;37.848;2023-12-20T12:23:03;4.32;;;2.90;;
47784;SDS011;35233;55.686;37.848;2023-12-20T12:25:30;4.38;;;2.70;;
47784;SDS011;35233;55.686;37.848;2023-12-20T12:27:57;3.55;;;2.80;;
47784;SDS011;35233;55.686;37.848;2023-12-20T12:30:24;4.75;;;2.80;;
47784;SDS011;35233;55.686;37.848;2023-12-20T12:32:53;6.15;;;2.95;;
47784;SDS011;35233;55.686;37.848;2023-12-20T12:35:19;3.72;;;2.60;;
47784;SDS011;35233;55.686;37.848;2023-12-20T12:37:45;3.55;;;2.40;;
47784;SDS011;35233;55.686;37.848;2023-12-20T12:40:12;4.00;;;2.20;;
47784;SDS011;35233;55.686;37.848;2023-12-20T12:42:39;5.20;;;2.50;;
47784;SDS011;35233;55.686;37.848;2023-12-20T12:45:06;3.75;;;2.70;;
47784;SDS011;35233;55.686;37.848;2023-12-20T12:47:32;4.93;;;2.47;;
47784;SDS011;35233;55.686;37.848;2023-12-20T12:49:58;3.65;;;2.42;;
47784;SDS011;35233;55.686;37.848;2023-12-20T12:52:23;3.60;;;2.53;;
47784;SDS011;35233;55.686;37.848;2023-12-20T12:54:49;4.30;;;2.50;;
47784;SDS011;35233;55.686;37.848;2023-12-20T12:57:15;6.15;;;2.88;;
47784;SDS011;35233;55.686;37.848;2023-12-20T12:59:42;3.17;;;2.38;;
47784;SDS011;35233;55.686;37.848;2023-12-20T13:02:10;4.13;;;2.65;;
47784;SDS011;35233;55.686;37.848;2023-12-20T13:04:36;3.20;;;2.38;;
47784;SDS011;35233;55.686;37.848;2023-12-20T13:07:02;3.13;;;2.20;;
47784;SDS011;35233;55.686;37.848;2023-12-20T13:09:28;3.60;;;2.42;;
47784;SDS011;35233;55.686;37.848;2023-12-20T13:11:53;3.38;;;2.45;;
47784;SDS011;35233;55.686;37.848;2023-12-20T13:14:19;3.15;;;2.28;;
47784;SDS011;35233;55.686;37.848;2023-12-20T13:16:44;3.90;;;2.33;;
47784;SDS011;35233;55.686;37.848;2023-12-20T13:19:10;3.80;;;2.50;;
47784;SDS011;35233;55.686;37.848;2023-12-20T13:21:36;3.38;;;2.17;;
47784;SDS011;35233;55.686;37.848;2023-12-20T13:24:02;3.40;;;2.40;;
47784;SDS011;35233;55.686;37.848;2023-12-20T13:26:28;3.60;;;2.22;;
47784;SDS011;35233;55.686;37.848;2023-12-20T13:28:54;3.08;;;1.90;;
47784;SDS011;35233;55.686;37.848;2023-12-20T13:31:46;3.20;;;2.30;;
47784;SDS011;35233;55.686;37.848;2023-12-20T13:34:11;2.60;;;2.13;;
47784;SDS011;35233;55.686;37.848;2023-12-20T13:36:37;3.08;;;2.53;;
47784;SDS011;35233;55.686;37.848;2023-12-20T13:39:03;2.72;;;1.92;;
47784;SDS011;35233;55.686;37.848;2023-12-20T13:41:30;3.08;;;2.17;;
47784;SDS011;35233;55.686;37.848;2023-12-20T13:43:56;3.90;;;1.92;;
47784;SDS011;35233;55.686;37.848;2023-12-20T13:46:21;2.83;;;1.77;;
47784;SDS011;35233;55.686;37.848;2023-12-20T13:48:48;2.55;;;1.90;;
47784;SDS011;35233;55.686;37.848;2023-12-20T13:51:14;3.40;;;2.20;;
47784;SDS011;35233;55.686;37.848;2023-12-20T13:53:40;3.10;;;2.03;;
47784;SDS011;35233;55.686;37.848;2023-12-20T13:56:06;2.22;;;1.63;;
47784;SDS011;35233;55.686;37.848;2023-12-20T13:58:32;2.70;;;1.90;;
47784;SDS011;35233;55.686;37.848;2023-12-20T14:00:57;3.47;;;2.05;;
47784;SDS011;35233;55.686;37.848;2023-12-20T14:03:23;3.65;;;1.92;;
47784;SDS011;35233;55.686;37.848;2023-12-20T14:05:49;3.00;;;2.08;;
47784;SDS011;35233;55.686;37.848;2023-12-20T14:08:14;3.08;;;1.90;;
47784;SDS011;35233;55.686;37.848;2023-12-20T14:10:40;2.38;;;1.67;;
47784;SDS011;35233;55.686;37.848;2023-12-20T14:13:05;1.98;;;1.60;;
47784;SDS011;35233;55.686;37.848;2023-12-20T14:15:31;4.30;;;1.80;;
47784;SDS011;35233;55.686;37.848;2023-12-20T14:18:03;2.10;;;1.70;;
47784;SDS011;35233;55.686;37.848;2023-12-20T14:20:33;2.40;;;1.70;;
47784;SDS011;35233;55.686;37.848;2023-12-20T14:23:00;2.15;;;1.58;;
47784;SDS011;35233;55.686;37.848;2023-12-20T14:25:28;2.45;;;1.90;;
47784;SDS011;35233;55.686;37.848;2023-12-20T14:27:54;1.75;;;1.63;;
47784;SDS011;35233;55.686;37.848;2023-12-20T14:30:21;2.72;;;1.70;;
47784;SDS011;35233;55.686;37.848;2023-12-20T14:32:46;1.95;;;1.70;;